sensor_id;sensor_type;location;lat;lon;timestamp;P1;durP1;ratioP1;P2;durP2;ratioP2
16037;SDS011;8123;50.906;6.172;2022-08-20T00:00:51;18.27;;;13.47;;
16037;SDS011;8123;50.906;6.172;2022-08-20T00:03:20;21.90;;;14.50;;
16037;SDS011;8123;50.906;6.172;2022-08-20T00:05:49;20.23;;;14.37;;
16037;SDS011;8123;50.906;6.172;2022-08-20T00:08:18;22.57;;;14.60;;
16037;SDS011;8123;50.906;6.172;2022-08-20T00:10:45;24.20;;;14.40;;
16037;SDS011;8123;50.906;6.172;2022-08-20T00:13:14;21.00;;;13.80;;
16037;SDS011;8123;50.906;6.172;2022-08-20T00:15:43;16.87;;;12.50;;
16037;SDS011;8123;50.906;6.172;2022-08-20T00:18:09;19.57;;;12.23;;
16037;SDS011;8123;50.906;6.172;2022-08-20T00:20:37;19.57;;;13.50;;
16037;SDS011;8123;50.906;6.172;2022-08-20T00:23:04;19.47;;;14.00;;
16037;SDS011;8123;50.906;6.172;2022-08-20T00:25:30;21.97;;;13.90;;
16037;SDS011;8123;50.906;6.172;2022-08-20T00:27:56;14.87;;;12.23;;
16037;SDS011;8123;50.906;6.172;2022-08-20T00:30:23;15.20;;;11.33;;
16037;SDS011;8123;50.906;6.172;2022-08-20T00:32:55;12.50;;;10.43;;
16037;SDS011;8123;50.906;6.172;2022-08-20T00:35:32;16.23;;;10.53;;
16037;SDS011;8123;50.906;6.172;2022-08-20T00:38:00;13.10;;;10.30;;
16037;SDS011;8123;50.906;6.172;2022-08-20T00:40:45;11.03;;;8.57;;
16037;SDS011;8123;50.906;6.172;2022-08-20T00:44:03;9.27;;;7.73;;
16037;SDS011;8123;50.906;6.172;2022-08-20T00:46:12;8.23;;;6.90;;
16037;SDS011;8123;50.906;6.172;2022-08-20T00:48:41;6.73;;;6.13;;
16037;SDS011;8123;50.906;6.172;2022-08-20T00:51:10;5.77;;;5.27;;
16037;SDS011;8123;50.906;6.172;2022-08-20T00:53:42;11.30;;;6.70;;
16037;SDS011;8123;50.906;6.172;2022-08-20T00:56:09;5.70;;;5.20;;
16037;SDS011;8123;50.906;6.172;2022-08-20T00:58:36;5.37;;;4.93;;
16037;SDS011;8123;50.906;6.172;2022-08-20T01:01:06;9.20;;;6.40;;
16037;SDS011;8123;50.906;6.172;2022-08-20T01:03:33;6.47;;;5.70;;
16037;SDS011;8123;50.906;6.172;2022-08-20T01:05:59;14.37;;;6.00;;
16037;SDS011;8123;50.906;6.172;2022-08-20T01:08:25;7.00;;;6.30;;
16037;SDS011;8123;50.906;6.172;2022-08-20T01:10:51;9.23;;;5.60;;
16037;SDS011;8123;50.906;6.172;2022-08-20T01:16:55;7.03;;;6.33;;
16037;SDS011;8123;50.906;6.172;2022-08-20T01:19:27;8.20;;;7.03;;
16037;SDS011;8123;50.906;6.172;2022-08-20T01:21:59;19.53;;;7.97;;
16037;SDS011;8123;50.906;6.172;2022-08-20T01:24:47;9.07;;;8.17;;
16037;SDS011;8123;50.906;6.172;2022-08-20T01:27:16;8.60;;;7.80;;
16037;SDS011;8123;50.906;6.172;2022-08-20T01:29:42;15.20;;;8.83;;
16037;SDS011;8123;50.906;6.172;2022-08-20T01:32:08;10.37;;;8.23;;
16037;SDS011;8123;50.906;6.172;2022-08-20T01:34:34;11.63;;;9.13;;
16037;SDS011;8123;50.906;6.172;2022-08-20T01:37:00;12.07;;;8.40;;
16037;SDS011;8123;50.906;6.172;2022-08-20T01:39:27;10.70;;;8.50;;
16037;SDS011;8123;50.906;6.172;2022-08-20T01:44:49;10.87;;;9.53;;
16037;SDS011;8123;50.906;6.172;2022-08-20T01:47:27;14.83;;;9.63;;
16037;SDS011;8123;50.906;6.172;2022-08-20T01:50:37;13.83;;;10.10;;
16037;SDS011;8123;50.906;6.172;2022-08-20T01:52:49;16.43;;;11.20;;
16037;SDS011;8123;50.906;6.172;2022-08-20T01:55:21;23.47;;;14.17;;
16037;SDS011;8123;50.906;6.172;2022-08-20T01:57:47;29.23;;;17.67;;
16037;SDS011;8123;50.906;6.172;2022-08-20T02:00:14;26.97;;;18.80;;
16037;SDS011;8123;50.906;6.172;2022-08-20T02:02:42;26.70;;;19.10;;
16037;SDS011;8123;50.906;6.172;2022-08-20T02:05:08;29.33;;;18.60;;
16037;SDS011;8123;50.906;6.172;2022-08-20T02:07:35;31.80;;;19.60;;
16037;SDS011;8123;50.906;6.172;2022-08-20T02:10:02;26.30;;;17.37;;
16037;SDS011;8123;50.906;6.172;2022-08-20T02:12:30;22.63;;;15.70;;
16037;SDS011;8123;50.906;6.172;2022-08-20T02:14:56;23.80;;;14.13;;
16037;SDS011;8123;50.906;6.172;2022-08-20T02:17:22;22.90;;;14.40;;
16037;SDS011;8123;50.906;6.172;2022-08-20T02:19:53;25.50;;;17.70;;
16037;SDS011;8123;50.906;6.172;2022-08-20T02:22:23;28.87;;;19.33;;
16037;SDS011;8123;50.906;6.172;2022-08-20T02:24:58;36.80;;;21.57;;
16037;SDS011;8123;50.906;6.172;2022-08-20T02:27:23;42.30;;;24.57;;
16037;SDS011;8123;50.906;6.172;2022-08-20T02:29:50;40.50;;;23.63;;
16037;SDS011;8123;50.906;6.172;2022-08-20T02:32:17;35.27;;;23.10;;
16037;SDS011;8123;50.906;6.172;2022-08-20T02:34:43;39.30;;;25.83;;
16037;SDS011;8123;50.906;6.172;2022-08-20T02:37:08;35.10;;;24.77;;
16037;SDS011;8123;50.906;6.172;2022-08-20T02:39:35;37.03;;;24.30;;
16037;SDS011;8123;50.906;6.172;2022-08-20T02:42:00;43.93;;;25.20;;
16037;SDS011;8123;50.906;6.172;2022-08-20T02:44:28;40.27;;;26.37;;
16037;SDS011;8123;50.906;6.172;2022-08-20T02:46:54;36.73;;;24.73;;
16037;SDS011;8123;50.906;6.172;2022-08-20T02:49:20;42.87;;;23.90;;
16037;SDS011;8123;50.906;6.172;2022-08-20T02:51:46;49.73;;;25.60;;
16037;SDS011;8123;50.906;6.172;2022-08-20T02:54:12;39.70;;;24.17;;
16037;SDS011;8123;50.906;6.172;2022-08-20T02:56:38;35.33;;;23.67;;
16037;SDS011;8123;50.906;6.172;2022-08-20T02:59:04;45.90;;;26.33;;
16037;SDS011;8123;50.906;6.172;2022-08-20T03:01:30;48.17;;;25.93;;
16037;SDS011;8123;50.906;6.172;2022-08-20T03:03:56;42.00;;;23.57;;
16037;SDS011;8123;50.906;6.172;2022-08-20T03:06:23;42.33;;;27.00;;
16037;SDS011;8123;50.906;6.172;2022-08-20T03:08:49;49.03;;;26.03;;
16037;SDS011;8123;50.906;6.172;2022-08-20T03:11:15;43.43;;;26.50;;
16037;SDS011;8123;50.906;6.172;2022-08-20T03:13:41;40.67;;;23.37;;
16037;SDS011;8123;50.906;6.172;2022-08-20T03:16:07;45.40;;;24.80;;
16037;SDS011;8123;50.906;6.172;2022-08-20T03:18:35;54.33;;;26.90;;
16037;SDS011;8123;50.906;6.172;2022-08-20T03:21:06;42.73;;;27.37;;
16037;SDS011;8123;50.906;6.172;2022-08-20T03:23:33;47.40;;;26.83;;
16037;SDS011;8123;50.906;6.172;2022-08-20T03:26:00;42.63;;;26.40;;
16037;SDS011;8123;50.906;6.172;2022-08-20T03:28:27;48.63;;;27.17;;
16037;SDS011;8123;50.906;6.172;2022-08-20T03:30:53;48.43;;;28.13;;
16037;SDS011;8123;50.906;6.172;2022-08-20T03:33:20;50.97;;;28.33;;
16037;SDS011;8123;50.906;6.172;2022-08-20T03:35:46;47.50;;;27.13;;
16037;SDS011;8123;50.906;6.172;2022-08-20T03:38:12;51.80;;;28.70;;
16037;SDS011;8123;50.906;6.172;2022-08-20T03:40:40;50.33;;;28.50;;
16037;SDS011;8123;50.906;6.172;2022-08-20T03:43:07;46.23;;;27.03;;
16037;SDS011;8123;50.906;6.172;2022-08-20T03:45:33;50.10;;;27.77;;
16037;SDS011;8123;50.906;6.172;2022-08-20T03:48:01;47.23;;;28.20;;
16037;SDS011;8123;50.906;6.172;2022-08-20T03:50:28;46.33;;;27.00;;
16037;SDS011;8123;50.906;6.172;2022-08-20T03:52:55;50.23;;;30.47;;
16037;SDS011;8123;50.906;6.172;2022-08-20T03:55:22;50.63;;;29.20;;
16037;SDS011;8123;50.906;6.172;2022-08-20T03:57:50;50.00;;;30.60;;
16037;SDS011;8123;50.906;6.172;2022-08-20T04:00:20;51.33;;;32.50;;
16037;SDS011;8123;50.906;6.172;2022-08-20T04:02:48;45.13;;;28.80;;
16037;SDS011;8123;50.906;6.172;2022-08-20T04:05:14;49.80;;;30.10;;
16037;SDS011;8123;50.906;6.172;2022-08-20T04:07:40;43.93;;;28.73;;
16037;SDS011;8123;50.906;6.172;2022-08-20T04:10:08;48.17;;;27.70;;
16037;SDS011;8123;50.906;6.172;2022-08-20T04:12:35;50.60;;;27.17;;
16037;SDS011;8123;50.906;6.172;2022-08-20T04:15:07;59.33;;;30.07;;
16037;SDS011;8123;50.906;6.172;2022-08-20T04:17:39;47.93;;;27.77;;
16037;SDS011;8123;50.906;6.172;2022-08-20T04:20:06;48.13;;;30.30;;
16037;SDS011;8123;50.906;6.172;2022-08-20T04:22:34;43.13;;;26.60;;
16037;SDS011;8123;50.906;6.172;2022-08-20T04:25:01;53.00;;;30.23;;
16037;SDS011;8123;50.906;6.172;2022-08-20T04:27:27;51.03;;;29.23;;
16037;SDS011;8123;50.906;6.172;2022-08-20T04:29:52;44.90;;;26.67;;
16037;SDS011;8123;50.906;6.172;2022-08-20T04:32:18;47.08;;;29.35;;
16037;SDS011;8123;50.906;6.172;2022-08-20T04:34:45;49.07;;;25.83;;
16037;SDS011;8123;50.906;6.172;2022-08-20T04:37:11;38.13;;;26.00;;
16037;SDS011;8123;50.906;6.172;2022-08-20T04:39:37;52.03;;;25.37;;
16037;SDS011;8123;50.906;6.172;2022-08-20T04:42:03;44.30;;;26.40;;
16037;SDS011;8123;50.906;6.172;2022-08-20T04:44:29;41.43;;;25.77;;
16037;SDS011;8123;50.906;6.172;2022-08-20T04:46:54;43.40;;;25.10;;
16037;SDS011;8123;50.906;6.172;2022-08-20T04:49:20;46.87;;;23.03;;
16037;SDS011;8123;50.906;6.172;2022-08-20T04:51:49;41.20;;;24.10;;
16037;SDS011;8123;50.906;6.172;2022-08-20T04:54:14;41.87;;;23.87;;
16037;SDS011;8123;50.906;6.172;2022-08-20T04:56:40;39.63;;;24.33;;
16037;SDS011;8123;50.906;6.172;2022-08-20T04:59:06;45.47;;;24.83;;
16037;SDS011;8123;50.906;6.172;2022-08-20T05:01:32;49.53;;;22.83;;
16037;SDS011;8123;50.906;6.172;2022-08-20T05:03:57;43.03;;;24.30;;
16037;SDS011;8123;50.906;6.172;2022-08-20T05:06:25;46.80;;;23.50;;
16037;SDS011;8123;50.906;6.172;2022-08-20T05:08:54;40.57;;;22.57;;
16037;SDS011;8123;50.906;6.172;2022-08-20T05:11:22;52.07;;;23.90;;
16037;SDS011;8123;50.906;6.172;2022-08-20T05:13:48;36.17;;;22.80;;
16037;SDS011;8123;50.906;6.172;2022-08-20T05:16:17;46.20;;;22.47;;
16037;SDS011;8123;50.906;6.172;2022-08-20T05:18:43;48.87;;;23.30;;
16037;SDS011;8123;50.906;6.172;2022-08-20T05:21:10;35.93;;;23.63;;
16037;SDS011;8123;50.906;6.172;2022-08-20T05:23:36;63.83;;;24.43;;
16037;SDS011;8123;50.906;6.172;2022-08-20T05:26:06;51.73;;;24.97;;
16037;SDS011;8123;50.906;6.172;2022-08-20T05:28:37;46.23;;;23.50;;
16037;SDS011;8123;50.906;6.172;2022-08-20T05:31:03;38.10;;;24.17;;
16037;SDS011;8123;50.906;6.172;2022-08-20T05:33:33;39.53;;;21.47;;
16037;SDS011;8123;50.906;6.172;2022-08-20T05:36:00;44.03;;;25.90;;
16037;SDS011;8123;50.906;6.172;2022-08-20T05:38:26;41.50;;;24.87;;
16037;SDS011;8123;50.906;6.172;2022-08-20T05:40:53;49.93;;;22.37;;
16037;SDS011;8123;50.906;6.172;2022-08-20T05:43:19;36.27;;;19.40;;
16037;SDS011;8123;50.906;6.172;2022-08-20T05:45:45;45.97;;;20.03;;
16037;SDS011;8123;50.906;6.172;2022-08-20T05:48:16;44.27;;;20.47;;
16037;SDS011;8123;50.906;6.172;2022-08-20T05:50:45;45.93;;;18.53;;
16037;SDS011;8123;50.906;6.172;2022-08-20T05:53:16;50.07;;;18.90;;
16037;SDS011;8123;50.906;6.172;2022-08-20T05:55:42;38.97;;;17.43;;
16037;SDS011;8123;50.906;6.172;2022-08-20T05:58:13;42.63;;;18.77;;
16037;SDS011;8123;50.906;6.172;2022-08-20T06:00:45;44.43;;;19.60;;
16037;SDS011;8123;50.906;6.172;2022-08-20T06:03:11;46.63;;;20.80;;
16037;SDS011;8123;50.906;6.172;2022-08-20T06:05:55;38.77;;;19.10;;
16037;SDS011;8123;50.906;6.172;2022-08-20T06:08:21;51.47;;;20.90;;
16037;SDS011;8123;50.906;6.172;2022-08-20T06:10:48;47.07;;;20.77;;
16037;SDS011;8123;50.906;6.172;2022-08-20T06:13:13;40.17;;;19.47;;
16037;SDS011;8123;50.906;6.172;2022-08-20T06:15:39;49.17;;;23.10;;
16037;SDS011;8123;50.906;6.172;2022-08-20T06:18:06;58.50;;;21.47;;
16037;SDS011;8123;50.906;6.172;2022-08-20T06:20:33;43.83;;;20.77;;
16037;SDS011;8123;50.906;6.172;2022-08-20T06:22:59;48.83;;;23.13;;
16037;SDS011;8123;50.906;6.172;2022-08-20T06:25:25;51.07;;;22.10;;
16037;SDS011;8123;50.906;6.172;2022-08-20T06:27:50;45.37;;;21.60;;
16037;SDS011;8123;50.906;6.172;2022-08-20T06:30:16;48.40;;;21.13;;
16037;SDS011;8123;50.906;6.172;2022-08-20T06:32:42;54.70;;;25.20;;
16037;SDS011;8123;50.906;6.172;2022-08-20T06:35:08;62.20;;;24.07;;
16037;SDS011;8123;50.906;6.172;2022-08-20T06:37:35;54.27;;;23.37;;
16037;SDS011;8123;50.906;6.172;2022-08-20T06:42:30;57.60;;;22.63;;
16037;SDS011;8123;50.906;6.172;2022-08-20T06:44:55;62.50;;;24.40;;
16037;SDS011;8123;50.906;6.172;2022-08-20T06:47:23;50.43;;;22.40;;
16037;SDS011;8123;50.906;6.172;2022-08-20T06:49:49;41.43;;;23.17;;
16037;SDS011;8123;50.906;6.172;2022-08-20T06:52:15;54.60;;;24.07;;
16037;SDS011;8123;50.906;6.172;2022-08-20T06:54:41;46.67;;;24.60;;
16037;SDS011;8123;50.906;6.172;2022-08-20T06:57:07;47.40;;;25.87;;
16037;SDS011;8123;50.906;6.172;2022-08-20T06:59:33;53.40;;;25.87;;
16037;SDS011;8123;50.906;6.172;2022-08-20T07:02:00;59.73;;;27.60;;
16037;SDS011;8123;50.906;6.172;2022-08-20T07:04:26;59.97;;;25.63;;
16037;SDS011;8123;50.906;6.172;2022-08-20T07:06:52;50.90;;;25.63;;
16037;SDS011;8123;50.906;6.172;2022-08-20T07:09:18;56.93;;;27.80;;
16037;SDS011;8123;50.906;6.172;2022-08-20T07:11:45;58.70;;;25.80;;
16037;SDS011;8123;50.906;6.172;2022-08-20T07:14:12;62.27;;;26.70;;
16037;SDS011;8123;50.906;6.172;2022-08-20T07:16:39;57.17;;;28.57;;
16037;SDS011;8123;50.906;6.172;2022-08-20T07:19:06;73.33;;;31.40;;
16037;SDS011;8123;50.906;6.172;2022-08-20T07:21:32;58.03;;;28.70;;
16037;SDS011;8123;50.906;6.172;2022-08-20T07:23:58;56.27;;;28.50;;
16037;SDS011;8123;50.906;6.172;2022-08-20T07:26:24;62.63;;;28.23;;
16037;SDS011;8123;50.906;6.172;2022-08-20T07:28:50;60.67;;;28.97;;
16037;SDS011;8123;50.906;6.172;2022-08-20T07:31:16;85.93;;;30.50;;
16037;SDS011;8123;50.906;6.172;2022-08-20T07:34:00;53.37;;;28.30;;
16037;SDS011;8123;50.906;6.172;2022-08-20T07:36:26;62.97;;;27.93;;
16037;SDS011;8123;50.906;6.172;2022-08-20T07:38:52;72.40;;;28.97;;
16037;SDS011;8123;50.906;6.172;2022-08-20T07:41:19;62.43;;;28.03;;
16037;SDS011;8123;50.906;6.172;2022-08-20T07:43:45;83.50;;;31.30;;
16037;SDS011;8123;50.906;6.172;2022-08-20T07:46:15;64.57;;;26.60;;
16037;SDS011;8123;50.906;6.172;2022-08-20T07:48:44;70.17;;;25.50;;
16037;SDS011;8123;50.906;6.172;2022-08-20T07:51:11;61.63;;;25.30;;
16037;SDS011;8123;50.906;6.172;2022-08-20T07:53:39;64.83;;;25.10;;
16037;SDS011;8123;50.906;6.172;2022-08-20T07:56:06;74.03;;;28.13;;
16037;SDS011;8123;50.906;6.172;2022-08-20T07:58:35;58.23;;;26.20;;
16037;SDS011;8123;50.906;6.172;2022-08-20T08:01:03;63.30;;;25.07;;
16037;SDS011;8123;50.906;6.172;2022-08-20T08:03:30;56.93;;;25.90;;
16037;SDS011;8123;50.906;6.172;2022-08-20T08:05:56;58.63;;;24.83;;
16037;SDS011;8123;50.906;6.172;2022-08-20T08:08:23;67.27;;;25.63;;
16037;SDS011;8123;50.906;6.172;2022-08-20T08:10:51;69.73;;;25.00;;
16037;SDS011;8123;50.906;6.172;2022-08-20T08:13:23;52.87;;;24.70;;
16037;SDS011;8123;50.906;6.172;2022-08-20T08:15:51;50.10;;;23.80;;
16037;SDS011;8123;50.906;6.172;2022-08-20T08:18:22;63.73;;;24.80;;
16037;SDS011;8123;50.906;6.172;2022-08-20T08:20:50;52.40;;;24.57;;
16037;SDS011;8123;50.906;6.172;2022-08-20T08:23:17;48.37;;;20.93;;
16037;SDS011;8123;50.906;6.172;2022-08-20T08:25:45;45.07;;;23.10;;
16037;SDS011;8123;50.906;6.172;2022-08-20T08:28:11;50.20;;;21.27;;
16037;SDS011;8123;50.906;6.172;2022-08-20T08:30:39;51.80;;;21.67;;
16037;SDS011;8123;50.906;6.172;2022-08-20T08:33:06;64.57;;;21.43;;
16037;SDS011;8123;50.906;6.172;2022-08-20T08:36:14;35.20;;;17.83;;
16037;SDS011;8123;50.906;6.172;2022-08-20T08:38:40;36.53;;;18.17;;
16037;SDS011;8123;50.906;6.172;2022-08-20T08:43:39;41.60;;;19.00;;
16037;SDS011;8123;50.906;6.172;2022-08-20T08:46:08;43.80;;;20.37;;
16037;SDS011;8123;50.906;6.172;2022-08-20T08:48:36;59.90;;;23.17;;
16037;SDS011;8123;50.906;6.172;2022-08-20T08:51:09;49.60;;;19.70;;
16037;SDS011;8123;50.906;6.172;2022-08-20T08:53:39;51.80;;;20.63;;
16037;SDS011;8123;50.906;6.172;2022-08-20T08:56:17;49.97;;;22.00;;
16037;SDS011;8123;50.906;6.172;2022-08-20T08:58:44;53.37;;;21.10;;
16037;SDS011;8123;50.906;6.172;2022-08-20T09:01:13;48.43;;;19.27;;
16037;SDS011;8123;50.906;6.172;2022-08-20T09:03:42;57.73;;;23.27;;
16037;SDS011;8123;50.906;6.172;2022-08-20T09:06:14;48.73;;;22.03;;
16037;SDS011;8123;50.906;6.172;2022-08-20T09:08:55;38.40;;;21.07;;
16037;SDS011;8123;50.906;6.172;2022-08-20T09:11:25;45.53;;;20.53;;
16037;SDS011;8123;50.906;6.172;2022-08-20T09:13:52;51.73;;;21.90;;
16037;SDS011;8123;50.906;6.172;2022-08-20T09:16:19;49.27;;;22.10;;
16037;SDS011;8123;50.906;6.172;2022-08-20T09:18:46;45.07;;;21.53;;
16037;SDS011;8123;50.906;6.172;2022-08-20T09:21:13;45.90;;;21.83;;
16037;SDS011;8123;50.906;6.172;2022-08-20T09:23:40;40.73;;;22.10;;
16037;SDS011;8123;50.906;6.172;2022-08-20T09:26:06;52.47;;;20.67;;
16037;SDS011;8123;50.906;6.172;2022-08-20T09:28:32;52.23;;;23.57;;
16037;SDS011;8123;50.906;6.172;2022-08-20T09:30:58;56.70;;;23.93;;
16037;SDS011;8123;50.906;6.172;2022-08-20T09:33:23;49.13;;;25.07;;
16037;SDS011;8123;50.906;6.172;2022-08-20T09:35:49;44.03;;;25.20;;
16037;SDS011;8123;50.906;6.172;2022-08-20T09:38:15;47.33;;;23.30;;
16037;SDS011;8123;50.906;6.172;2022-08-20T09:40:41;66.20;;;26.50;;
16037;SDS011;8123;50.906;6.172;2022-08-20T09:43:07;70.83;;;28.50;;
16037;SDS011;8123;50.906;6.172;2022-08-20T09:45:33;53.17;;;25.33;;
16037;SDS011;8123;50.906;6.172;2022-08-20T09:48:00;53.67;;;23.37;;
16037;SDS011;8123;50.906;6.172;2022-08-20T09:50:26;78.30;;;27.77;;
16037;SDS011;8123;50.906;6.172;2022-08-20T09:52:54;55.97;;;25.77;;
16037;SDS011;8123;50.906;6.172;2022-08-20T09:55:32;57.60;;;26.50;;
16037;SDS011;8123;50.906;6.172;2022-08-20T09:58:02;60.73;;;23.37;;
16037;SDS011;8123;50.906;6.172;2022-08-20T10:00:32;48.73;;;22.97;;
16037;SDS011;8123;50.906;6.172;2022-08-20T10:02:57;47.13;;;22.70;;
16037;SDS011;8123;50.906;6.172;2022-08-20T10:05:24;49.77;;;22.90;;
16037;SDS011;8123;50.906;6.172;2022-08-20T10:07:50;54.87;;;21.23;;
16037;SDS011;8123;50.906;6.172;2022-08-20T10:10:16;62.87;;;22.93;;
16037;SDS011;8123;50.906;6.172;2022-08-20T10:12:41;49.23;;;19.60;;
16037;SDS011;8123;50.906;6.172;2022-08-20T10:15:07;38.03;;;18.67;;
16037;SDS011;8123;50.906;6.172;2022-08-20T10:17:38;49.50;;;20.87;;
16037;SDS011;8123;50.906;6.172;2022-08-20T10:20:05;57.10;;;22.83;;
16037;SDS011;8123;50.906;6.172;2022-08-20T10:22:32;41.70;;;17.17;;
16037;SDS011;8123;50.906;6.172;2022-08-20T10:24:58;34.20;;;15.57;;
16037;SDS011;8123;50.906;6.172;2022-08-20T10:27:24;38.03;;;16.90;;
16037;SDS011;8123;50.906;6.172;2022-08-20T10:29:49;40.73;;;16.80;;
16037;SDS011;8123;50.906;6.172;2022-08-20T10:32:15;48.47;;;17.43;;
16037;SDS011;8123;50.906;6.172;2022-08-20T10:34:42;36.30;;;17.80;;
16037;SDS011;8123;50.906;6.172;2022-08-20T10:37:13;43.57;;;18.40;;
16037;SDS011;8123;50.906;6.172;2022-08-20T10:39:44;41.47;;;15.40;;
16037;SDS011;8123;50.906;6.172;2022-08-20T10:42:10;39.77;;;16.50;;
16037;SDS011;8123;50.906;6.172;2022-08-20T10:44:36;40.30;;;16.77;;
16037;SDS011;8123;50.906;6.172;2022-08-20T10:47:12;28.83;;;13.90;;
16037;SDS011;8123;50.906;6.172;2022-08-20T10:49:51;45.83;;;16.10;;
16037;SDS011;8123;50.906;6.172;2022-08-20T10:52:18;30.80;;;14.60;;
16037;SDS011;8123;50.906;6.172;2022-08-20T10:54:44;36.73;;;15.10;;
16037;SDS011;8123;50.906;6.172;2022-08-20T10:57:17;54.30;;;18.07;;
16037;SDS011;8123;50.906;6.172;2022-08-20T10:59:45;31.50;;;15.70;;
16037;SDS011;8123;50.906;6.172;2022-08-20T11:02:12;31.10;;;13.77;;
16037;SDS011;8123;50.906;6.172;2022-08-20T11:04:38;34.77;;;15.40;;
16037;SDS011;8123;50.906;6.172;2022-08-20T11:09:39;30.07;;;16.87;;
16037;SDS011;8123;50.906;6.172;2022-08-20T11:12:05;32.57;;;15.77;;
16037;SDS011;8123;50.906;6.172;2022-08-20T11:14:31;35.23;;;15.43;;
16037;SDS011;8123;50.906;6.172;2022-08-20T11:16:57;31.93;;;15.20;;
16037;SDS011;8123;50.906;6.172;2022-08-20T11:19:23;36.37;;;16.90;;
16037;SDS011;8123;50.906;6.172;2022-08-20T11:21:49;27.00;;;12.13;;
16037;SDS011;8123;50.906;6.172;2022-08-20T11:24:15;29.70;;;12.20;;
16037;SDS011;8123;50.906;6.172;2022-08-20T11:26:40;28.50;;;12.10;;
16037;SDS011;8123;50.906;6.172;2022-08-20T11:29:06;35.17;;;12.50;;
16037;SDS011;8123;50.906;6.172;2022-08-20T11:31:32;31.23;;;11.93;;
16037;SDS011;8123;50.906;6.172;2022-08-20T11:33:57;26.37;;;12.60;;
16037;SDS011;8123;50.906;6.172;2022-08-20T11:36:23;27.67;;;11.90;;
16037;SDS011;8123;50.906;6.172;2022-08-20T11:38:50;28.00;;;12.10;;
16037;SDS011;8123;50.906;6.172;2022-08-20T11:41:16;24.07;;;10.07;;
16037;SDS011;8123;50.906;6.172;2022-08-20T11:43:42;30.70;;;11.27;;
16037;SDS011;8123;50.906;6.172;2022-08-20T11:46:08;22.10;;;10.63;;
16037;SDS011;8123;50.906;6.172;2022-08-20T11:48:33;27.80;;;10.20;;
16037;SDS011;8123;50.906;6.172;2022-08-20T11:50:59;20.43;;;8.80;;
16037;SDS011;8123;50.906;6.172;2022-08-20T11:53:25;26.80;;;9.77;;
16037;SDS011;8123;50.906;6.172;2022-08-20T11:55:50;20.53;;;9.77;;
16037;SDS011;8123;50.906;6.172;2022-08-20T11:58:16;25.60;;;9.17;;
16037;SDS011;8123;50.906;6.172;2022-08-20T12:00:42;21.70;;;8.97;;
16037;SDS011;8123;50.906;6.172;2022-08-20T12:03:08;25.73;;;10.97;;
16037;SDS011;8123;50.906;6.172;2022-08-20T12:05:34;21.80;;;9.63;;
16037;SDS011;8123;50.906;6.172;2022-08-20T12:08:01;25.70;;;8.67;;
16037;SDS011;8123;50.906;6.172;2022-08-20T12:10:28;20.77;;;8.30;;
16037;SDS011;8123;50.906;6.172;2022-08-20T12:12:54;29.07;;;8.27;;
16037;SDS011;8123;50.906;6.172;2022-08-20T12:15:20;18.77;;;8.33;;
16037;SDS011;8123;50.906;6.172;2022-08-20T12:17:45;24.17;;;7.90;;
16037;SDS011;8123;50.906;6.172;2022-08-20T12:20:12;28.67;;;7.60;;
16037;SDS011;8123;50.906;6.172;2022-08-20T12:22:38;21.10;;;7.13;;
16037;SDS011;8123;50.906;6.172;2022-08-20T12:25:05;19.30;;;5.80;;
16037;SDS011;8123;50.906;6.172;2022-08-20T12:27:32;21.13;;;5.27;;
16037;SDS011;8123;50.906;6.172;2022-08-20T12:29:59;24.30;;;5.30;;
16037;SDS011;8123;50.906;6.172;2022-08-20T12:32:27;9.87;;;4.50;;
16037;SDS011;8123;50.906;6.172;2022-08-20T12:34:54;19.97;;;5.00;;
16037;SDS011;8123;50.906;6.172;2022-08-20T12:37:22;12.17;;;4.50;;
16037;SDS011;8123;50.906;6.172;2022-08-20T12:39:51;21.03;;;4.90;;
16037;SDS011;8123;50.906;6.172;2022-08-20T12:42:18;15.23;;;4.13;;
16037;SDS011;8123;50.906;6.172;2022-08-20T12:44:44;14.00;;;4.10;;
16037;SDS011;8123;50.906;6.172;2022-08-20T12:47:11;9.93;;;4.23;;
16037;SDS011;8123;50.906;6.172;2022-08-20T12:49:50;10.67;;;4.63;;
16037;SDS011;8123;50.906;6.172;2022-08-20T12:52:18;24.07;;;6.97;;
16037;SDS011;8123;50.906;6.172;2022-08-20T12:54:44;15.60;;;6.00;;
16037;SDS011;8123;50.906;6.172;2022-08-20T12:57:15;20.60;;;5.93;;
16037;SDS011;8123;50.906;6.172;2022-08-20T12:59:49;14.57;;;4.83;;
16037;SDS011;8123;50.906;6.172;2022-08-20T13:02:14;11.00;;;3.70;;
16037;SDS011;8123;50.906;6.172;2022-08-20T13:04:42;8.57;;;3.53;;
16037;SDS011;8123;50.906;6.172;2022-08-20T13:07:09;10.93;;;3.80;;
16037;SDS011;8123;50.906;6.172;2022-08-20T13:09:36;15.93;;;3.87;;
16037;SDS011;8123;50.906;6.172;2022-08-20T13:12:02;10.73;;;4.53;;
16037;SDS011;8123;50.906;6.172;2022-08-20T13:14:29;15.53;;;4.30;;
16037;SDS011;8123;50.906;6.172;2022-08-20T13:16:55;9.90;;;4.40;;
16037;SDS011;8123;50.906;6.172;2022-08-20T13:19:22;10.47;;;3.77;;
16037;SDS011;8123;50.906;6.172;2022-08-20T13:21:49;9.80;;;4.53;;
16037;SDS011;8123;50.906;6.172;2022-08-20T13:24:16;17.70;;;4.30;;
16037;SDS011;8123;50.906;6.172;2022-08-20T13:26:41;11.90;;;4.20;;
16037;SDS011;8123;50.906;6.172;2022-08-20T13:29:07;11.60;;;4.10;;
16037;SDS011;8123;50.906;6.172;2022-08-20T13:31:32;17.80;;;4.07;;
16037;SDS011;8123;50.906;6.172;2022-08-20T13:33:58;14.07;;;4.53;;
16037;SDS011;8123;50.906;6.172;2022-08-20T13:36:24;11.97;;;5.10;;
16037;SDS011;8123;50.906;6.172;2022-08-20T13:41:18;18.60;;;4.80;;
16037;SDS011;8123;50.906;6.172;2022-08-20T13:43:44;9.33;;;3.63;;
16037;SDS011;8123;50.906;6.172;2022-08-20T13:46:10;14.00;;;4.40;;
16037;SDS011;8123;50.906;6.172;2022-08-20T13:48:35;11.83;;;4.17;;
16037;SDS011;8123;50.906;6.172;2022-08-20T13:51:01;7.10;;;3.70;;
16037;SDS011;8123;50.906;6.172;2022-08-20T13:53:27;14.83;;;4.40;;
16037;SDS011;8123;50.906;6.172;2022-08-20T13:55:53;9.77;;;3.90;;
16037;SDS011;8123;50.906;6.172;2022-08-20T13:58:18;15.00;;;4.20;;
16037;SDS011;8123;50.906;6.172;2022-08-20T14:00:46;11.80;;;4.47;;
16037;SDS011;8123;50.906;6.172;2022-08-20T14:03:13;10.13;;;4.40;;
16037;SDS011;8123;50.906;6.172;2022-08-20T14:05:39;11.60;;;4.10;;
16037;SDS011;8123;50.906;6.172;2022-08-20T14:08:13;13.40;;;4.37;;
16037;SDS011;8123;50.906;6.172;2022-08-20T14:10:41;16.57;;;4.30;;
16037;SDS011;8123;50.906;6.172;2022-08-20T14:13:08;11.30;;;4.43;;
16037;SDS011;8123;50.906;6.172;2022-08-20T14:15:34;13.50;;;3.87;;
16037;SDS011;8123;50.906;6.172;2022-08-20T14:18:01;13.63;;;4.40;;
16037;SDS011;8123;50.906;6.172;2022-08-20T14:20:29;15.97;;;5.40;;
16037;SDS011;8123;50.906;6.172;2022-08-20T14:22:56;12.00;;;4.60;;
16037;SDS011;8123;50.906;6.172;2022-08-20T14:25:24;20.30;;;5.80;;
16037;SDS011;8123;50.906;6.172;2022-08-20T14:27:51;14.90;;;5.30;;
16037;SDS011;8123;50.906;6.172;2022-08-20T14:30:18;21.73;;;5.50;;
16037;SDS011;8123;50.906;6.172;2022-08-20T14:32:53;16.73;;;4.37;;
16037;SDS011;8123;50.906;6.172;2022-08-20T14:35:19;6.87;;;4.20;;
16037;SDS011;8123;50.906;6.172;2022-08-20T14:37:46;21.17;;;5.00;;
16037;SDS011;8123;50.906;6.172;2022-08-20T14:40:16;9.10;;;4.70;;
16037;SDS011;8123;50.906;6.172;2022-08-20T14:42:42;9.57;;;4.50;;
16037;SDS011;8123;50.906;6.172;2022-08-20T14:45:09;11.77;;;4.80;;
16037;SDS011;8123;50.906;6.172;2022-08-20T14:47:37;11.17;;;4.97;;
16037;SDS011;8123;50.906;6.172;2022-08-20T14:50:09;9.10;;;4.20;;
16037;SDS011;8123;50.906;6.172;2022-08-20T14:52:37;9.97;;;4.70;;
16037;SDS011;8123;50.906;6.172;2022-08-20T14:55:06;19.90;;;5.43;;
16037;SDS011;8123;50.906;6.172;2022-08-20T14:57:34;31.20;;;7.00;;